Time;durP1;ratioP1;P1;durP2;ratioP2;P2;SDS_P1;SDS_P2;PMS_P1;PMS_P2;Temp;Humidity;BMP_temperature;BMP_pressure;BME280_temperature;BME280_humidity;BME280_pressure;Samples;Min_cycle;Max_cycle;Signal;HPM_P1;HPM_P2
2022/10/26 00:00:32;;;;;;;10.52;4.05;;;12.50;99.90;;;;;;5001883;28;20352;-71
2022/10/26 00:03:00;;;;;;;12.23;4.10;;;12.50;99.90;;;;;;5002180;28;20030;-74
2022/10/26 00:05:26;;;;;;;8.43;4.50;;;12.50;99.90;;;;;;5005025;28;20041;-72
2022/10/26 00:07:53;;;;;;;11.80;3.92;;;12.50;99.90;;;;;;5001226;28;20022;-73
2022/10/26 00:10:20;;;;;;;6.03;4.22;;;12.50;99.90;;;;;;5002997;28;20034;-72
2022/10/26 00:12:50;;;;;;;13.20;4.80;;;12.40;99.90;;;;;;5003121;28;20430;-72
2022/10/26 00:15:22;;;;;;;10.32;4.18;;;12.40;99.90;;;;;;4995810;28;20030;-73
2022/10/26 00:17:50;;;;;;;9.93;4.10;;;12.40;99.90;;;;;;5001314;28;20114;-73
2022/10/26 00:20:16;;;;;;;10.25;4.95;;;12.40;99.90;;;;;;5001546;28;20455;-72
2022/10/26 00:22:41;;;;;;;7.43;4.07;;;12.40;99.90;;;;;;5000013;28;20041;-72
2022/10/26 00:25:08;;;;;;;9.93;4.93;;;12.50;99.90;;;;;;5002941;28;20040;-72
2022/10/26 00:27:36;;;;;;;15.65;5.00;;;12.50;99.90;;;;;;5002856;28;20104;-72
2022/10/26 00:30:04;;;;;;;8.50;4.80;;;12.50;99.90;;;;;;5001319;28;20387;-72
2022/10/26 00:32:30;;;;;;;10.23;4.18;;;12.50;99.90;;;;;;5000492;28;20026;-72
2022/10/26 00:34:56;;;;;;;10.15;4.97;;;12.50;99.90;;;;;;5000441;28;20034;-72
2022/10/26 00:37:24;;;;;;;7.38;4.53;;;12.50;99.90;;;;;;5003101;28;20045;-74
2022/10/26 00:39:49;;;;;;;10.25;4.88;;;12.50;99.90;;;;;;4998332;28;20034;-73
2022/10/26 00:42:18;;;;;;;11.48;5.28;;;12.50;99.90;;;;;;5000837;28;20045;-72
2022/10/26 00:44:47;;;;;;;10.90;5.15;;;12.50;99.90;;;;;;5001962;28;20074;-72
2022/10/26 00:47:12;;;;;;;9.25;4.45;;;12.50;99.90;;;;;;5000415;28;20070;-71
2022/10/26 00:49:38;;;;;;;8.88;4.50;;;12.50;99.90;;;;;;5000968;28;20022;-73
2022/10/26 00:52:05;;;;;;;11.40;4.55;;;12.50;99.90;;;;;;4998252;28;20600;-71
2022/10/26 00:54:34;;;;;;;8.80;4.55;;;12.50;99.90;;;;;;4999291;28;20022;-74
2022/10/26 00:57:02;;;;;;;16.13;5.20;;;12.50;99.90;;;;;;4999801;28;20117;-72
2022/10/26 00:59:30;;;;;;;15.00;4.68;;;12.50;99.90;;;;;;5003448;28;20071;-74
2022/10/26 01:01:56;;;;;;;8.15;4.45;;;12.60;99.90;;;;;;5002426;28;20032;-72
2022/10/26 01:04:22;;;;;;;9.05;4.50;;;12.50;99.90;;;;;;5001905;28;20018;-72
2022/10/26 01:06:51;;;;;;;6.32;4.25;;;12.60;99.90;;;;;;5007374;28;20113;-73
2022/10/26 01:09:19;;;;;;;11.18;4.97;;;12.60;99.90;;;;;;5002793;28;20052;-74
2022/10/26 01:11:44;;;;;;;8.35;4.20;;;12.70;99.90;;;;;;5001523;28;20038;-72
2022/10/26 01:14:12;;;;;;;9.45;4.68;;;12.70;99.90;;;;;;5001507;28;20073;-71
2022/10/26 01:16:47;;;;;;;10.68;4.70;;;12.70;99.90;;;;;;5001429;28;20033;-72
2022/10/26 01:19:46;;;;;;;12.05;4.22;;;12.70;99.90;;;;;;5000336;28;20076;-71
2022/10/26 01:22:36;;;;;;;12.10;4.50;;;12.70;99.90;;;;;;5002850;28;20022;-72
2022/10/26 01:25:46;;;;;;;11.25;4.05;;;12.70;99.90;;;;;;4997013;28;20027;-72
2022/10/26 01:28:56;;;;;;;10.05;4.85;;;12.80;99.90;;;;;;4980901;28;20053;-72
2022/10/26 01:31:30;;;;;;;8.63;4.93;;;12.80;99.90;;;;;;5003670;28;20053;-72
2022/10/26 01:34:05;;;;;;;12.90;5.47;;;12.80;99.90;;;;;;4999751;28;20026;-73
2022/10/26 01:36:32;;;;;;;8.77;4.88;;;12.80;99.90;;;;;;5004394;28;20030;-70
2022/10/26 01:39:02;;;;;;;11.77;4.43;;;12.80;99.90;;;;;;4999987;28;20060;-72
2022/10/26 01:41:33;;;;;;;9.73;5.10;;;12.80;99.90;;;;;;5007178;28;20122;-72
2022/10/26 01:44:03;;;;;;;10.68;5.05;;;12.80;99.90;;;;;;4996637;28;20042;-72
2022/10/26 01:46:38;;;;;;;13.10;4.85;;;12.80;99.90;;;;;;4998475;28;20036;-72
2022/10/26 01:49:11;;;;;;;9.60;4.95;;;12.90;99.90;;;;;;5001668;28;20049;-72
2022/10/26 01:51:43;;;;;;;16.45;5.18;;;12.90;99.90;;;;;;5005202;28;20064;-72
2022/10/26 01:54:09;;;;;;;17.05;5.07;;;12.90;99.90;;;;;;5003019;28;20026;-72
2022/10/26 01:56:39;;;;;;;9.52;4.82;;;12.90;99.90;;;;;;5006957;28;20443;-72
2022/10/26 01:59:59;;;;;;;12.63;5.07;;;12.90;99.90;;;;;;5019160;28;20459;-72
2022/10/26 02:02:47;;;;;;;12.85;4.80;;;12.80;99.90;;;;;;4984862;28;20443;-72
2022/10/26 02:05:15;;;;;;;15.85;5.28;;;12.80;99.90;;;;;;5005825;28;20471;-73
2022/10/26 02:08:19;;;;;;;6.88;4.50;;;12.80;99.90;;;;;;5004550;28;20060;-71
2022/10/26 02:11:24;;;;;;;14.07;4.88;;;12.80;99.90;;;;;;5004626;28;20035;-71
2022/10/26 02:13:54;;;;;;;7.57;4.80;;;12.70;99.90;;;;;;5003685;28;20407;-70
2022/10/26 02:16:24;;;;;;;12.68;4.50;;;12.70;99.90;;;;;;5000726;28;20053;-72
2022/10/26 02:18:59;;;;;;;12.63;4.63;;;12.60;99.90;;;;;;5001370;28;20322;-72
2022/10/26 02:21:30;;;;;;;6.53;4.10;;;12.60;99.90;;;;;;5002526;28;20097;-72
2022/10/26 02:23:58;;;;;;;9.50;4.82;;;12.60;99.90;;;;;;5004319;28;20089;-73
2022/10/26 02:26:27;;;;;;;9.82;3.90;;;12.60;99.90;;;;;;5006575;28;20021;-72
2022/10/26 02:28:59;;;;;;;9.80;4.30;;;12.60;99.90;;;;;;5005336;28;20336;-72
2022/10/26 02:31:27;;;;;;;6.70;4.30;;;12.60;99.90;;;;;;5007697;28;20030;-72
2022/10/26 02:33:58;;;;;;;8.05;4.43;;;12.70;99.90;;;;;;5001915;28;20121;-74
2022/10/26 02:36:29;;;;;;;10.85;4.43;;;12.70;99.90;;;;;;5002262;28;20034;-74
2022/10/26 02:38:59;;;;;;;10.35;4.53;;;12.70;99.90;;;;;;5007814;28;20108;-71
2022/10/26 02:41:27;;;;;;;12.60;4.72;;;12.70;99.90;;;;;;4998736;28;20038;-74
2022/10/26 02:43:59;;;;;;;11.00;3.97;;;12.70;99.90;;;;;;4999004;28;20022;-72
2022/10/26 02:46:26;;;;;;;10.65;4.03;;;12.70;99.90;;;;;;5006112;28;20040;-72
2022/10/26 02:48:55;;;;;;;9.35;4.45;;;12.70;99.90;;;;;;5004710;28;20034;-72
2022/10/26 02:51:33;;;;;;;12.73;4.50;;;12.70;99.90;;;;;;5000713;28;20110;-72
2022/10/26 02:54:10;;;;;;;7.28;4.68;;;12.70;99.90;;;;;;5000354;28;20057;-71
2022/10/26 02:57:09;;;;;;;8.95;4.32;;;12.70;99.90;;;;;;5003722;28;20026;-73
2022/10/26 02:59:39;;;;;;;12.35;4.20;;;12.80;99.90;;;;;;4979329;28;20049;-73
2022/10/26 03:02:05;;;;;;;10.38;4.90;;;12.80;99.90;;;;;;5017788;28;20447;-72
2022/10/26 03:04:33;;;;;;;7.20;4.13;;;12.80;99.90;;;;;;5005768;28;20450;-73
2022/10/26 03:07:01;;;;;;;9.35;4.28;;;12.70;99.90;;;;;;5001817;28;20034;-73
2022/10/26 03:09:27;;;;;;;15.15;4.30;;;12.70;99.90;;;;;;5000906;28;20529;-75
2022/10/26 03:11:56;;;;;;;12.07;4.15;;;12.70;99.90;;;;;;5005408;28;20101;-72
2022/10/26 03:14:23;;;;;;;8.50;3.75;;;12.70;99.90;;;;;;5014293;28;20037;-72
2022/10/26 03:16:49;;;;;;;7.95;4.38;;;12.70;99.90;;;;;;5002066;28;20070;-73
2022/10/26 03:19:15;;;;;;;9.32;4.03;;;12.70;99.90;;;;;;5008044;28;20130;-72
2022/10/26 03:21:41;;;;;;;6.40;3.80;;;12.70;99.90;;;;;;5005706;28;20022;-74
2022/10/26 03:24:07;;;;;;;8.65;4.13;;;12.80;99.90;;;;;;5001829;28;20029;-74
2022/10/26 03:26:33;;;;;;;13.02;4.15;;;12.80;99.90;;;;;;5004818;28;20033;-74
2022/10/26 03:28:58;;;;;;;11.60;3.92;;;12.80;99.90;;;;;;5000397;28;20049;-74
2022/10/26 03:31:24;;;;;;;9.13;4.47;;;12.90;99.90;;;;;;5003100;28;20154;-72
2022/10/26 03:33:49;;;;;;;9.13;4.05;;;12.90;99.90;;;;;;5005445;28;20036;-73
2022/10/26 03:36:15;;;;;;;10.43;4.50;;;12.90;99.90;;;;;;5005239;28;20026;-72
2022/10/26 03:38:41;;;;;;;11.43;3.35;;;13.00;99.90;;;;;;5003022;28;20429;-71
2022/10/26 03:41:06;;;;;;;13.68;4.15;;;13.00;99.90;;;;;;5008537;28;20032;-72
2022/10/26 03:43:34;;;;;;;7.15;3.70;;;13.00;99.90;;;;;;4998316;28;20031;-73
2022/10/26 03:46:03;;;;;;;12.00;3.90;;;13.00;99.90;;;;;;4999612;28;20060;-73
2022/10/26 03:48:33;;;;;;;9.73;4.03;;;13.10;99.90;;;;;;5006183;28;20635;-72
2022/10/26 03:50:59;;;;;;;7.47;3.58;;;13.10;99.90;;;;;;5008045;28;20037;-72
2022/10/26 03:53:26;;;;;;;7.90;3.88;;;13.10;99.90;;;;;;5012829;28;20030;-72
2022/10/26 03:55:53;;;;;;;15.75;4.35;;;13.10;99.90;;;;;;4998234;28;20030;-72
2022/10/26 03:58:19;;;;;;;12.82;3.75;;;13.10;99.90;;;;;;5001582;28;20117;-72
2022/10/26 04:00:46;;;;;;;8.75;3.70;;;13.20;99.90;;;;;;4999466;28;20109;-72
2022/10/26 04:03:12;;;;;;;11.15;3.40;;;13.20;99.90;;;;;;5002544;28;20439;-73
2022/10/26 04:05:39;;;;;;;7.82;3.45;;;13.20;99.90;;;;;;5001718;28;20030;-71
2022/10/26 04:08:05;;;;;;;15.57;3.53;;;13.20;99.90;;;;;;4999204;28;20085;-72
2022/10/26 04:10:31;;;;;;;11.82;3.58;;;13.30;99.90;;;;;;5000261;28;20088;-73
2022/10/26 04:13:00;;;;;;;9.02;3.33;;;13.30;99.90;;;;;;5001938;28;20030;-73
2022/10/26 04:15:25;;;;;;;6.63;3.90;;;13.30;99.90;;;;;;5000666;28;20057;-73
2022/10/26 04:17:59;;;;;;;7.45;3.08;;;13.30;99.90;;;;;;5003249;28;20403;-73
2022/10/26 04:20:31;;;;;;;11.52;3.63;;;13.40;99.90;;;;;;4998214;28;20038;-72
2022/10/26 04:22:58;;;;;;;10.30;3.30;;;13.40;99.90;;;;;;5000209;28;20022;-74
2022/10/26 04:25:24;;;;;;;6.78;2.85;;;13.40;99.90;;;;;;5002815;28;20030;-74
2022/10/26 04:27:49;;;;;;;7.90;3.85;;;13.40;99.90;;;;;;5003135;28;20139;-72
2022/10/26 04:30:17;;;;;;;10.82;3.45;;;13.50;99.90;;;;;;5000066;28;20029;-72
2022/10/26 04:32:43;;;;;;;4.95;2.92;;;13.50;99.90;;;;;;5001758;28;20042;-72
2022/10/26 04:35:11;;;;;;;9.90;3.58;;;13.50;99.90;;;;;;4999806;28;20121;-72
2022/10/26 04:37:39;;;;;;;4.93;3.05;;;13.50;99.90;;;;;;4999241;28;20379;-72
2022/10/26 04:40:05;;;;;;;8.27;3.30;;;13.50;99.90;;;;;;4998858;28;20026;-72
2022/10/26 04:42:36;;;;;;;5.85;3.50;;;13.50;99.90;;;;;;4996668;28;20035;-72
2022/10/26 04:45:02;;;;;;;8.15;3.08;;;13.50;99.90;;;;;;4999121;28;21514;-72
2022/10/26 04:47:27;;;;;;;6.47;3.47;;;13.50;99.90;;;;;;4996478;28;20045;-72
2022/10/26 04:49:53;;;;;;;14.07;3.88;;;13.50;99.90;;;;;;5001175;28;20105;-71
2022/10/26 04:52:18;;;;;;;11.50;3.33;;;13.40;99.90;;;;;;5001124;28;20022;-72
2022/10/26 04:54:44;;;;;;;13.90;3.50;;;13.50;99.90;;;;;;4997257;28;20033;-72
2022/10/26 04:57:10;;;;;;;6.72;3.25;;;13.50;99.90;;;;;;5013628;28;20034;-72
2022/10/26 04:59:35;;;;;;;9.48;3.38;;;13.50;99.90;;;;;;5000462;28;20018;-71
2022/10/26 05:02:01;;;;;;;4.65;3.05;;;13.50;99.90;;;;;;4998060;28;20073;-71
2022/10/26 05:04:26;;;;;;;10.80;3.20;;;13.50;99.90;;;;;;5001528;28;20021;-71
2022/10/26 05:06:52;;;;;;;6.43;2.90;;;13.50;99.90;;;;;;4998856;28;20380;-73
2022/10/26 05:09:18;;;;;;;9.10;3.85;;;13.50;99.90;;;;;;5001044;28;20030;-72
2022/10/26 05:11:46;;;;;;;15.50;3.67;;;13.50;99.90;;;;;;4997383;28;20041;-72
2022/10/26 05:14:12;;;;;;;6.45;3.53;;;13.50;99.90;;;;;;4997394;28;20049;-72
2022/10/26 05:16:37;;;;;;;7.45;3.30;;;13.50;99.90;;;;;;5002953;28;20014;-73
2022/10/26 05:19:05;;;;;;;8.95;3.60;;;13.50;99.90;;;;;;5000244;28;20502;-72
2022/10/26 05:21:31;;;;;;;15.00;3.42;;;13.50;99.90;;;;;;4998329;28;20022;-72
2022/10/26 05:23:56;;;;;;;16.20;3.60;;;13.50;99.90;;;;;;5002228;28;20509;-72
2022/10/26 05:26:25;;;;;;;5.35;3.35;;;13.50;99.90;;;;;;5009082;28;20026;-73
2022/10/26 05:28:53;;;;;;;7.28;3.38;;;13.60;99.90;;;;;;5004996;28;20421;-73
2022/10/26 05:31:19;;;;;;;9.77;3.28;;;13.60;99.90;;;;;;5002232;28;20057;-74
2022/10/26 05:33:49;;;;;;;5.53;3.17;;;13.60;99.90;;;;;;5002538;28;20433;-72
2022/10/26 05:36:19;;;;;;;5.68;3.38;;;13.60;99.90;;;;;;5005552;28;20026;-73
2022/10/26 05:38:47;;;;;;;7.97;3.20;;;13.60;99.90;;;;;;5003331;28;20034;-73
2022/10/26 05:41:13;;;;;;;8.57;3.38;;;13.60;99.90;;;;;;5003901;28;20029;-74
2022/10/26 05:43:38;;;;;;;4.72;2.75;;;13.70;99.90;;;;;;5006723;28;20026;-73
2022/10/26 05:46:06;;;;;;;8.68;3.20;;;13.70;99.90;;;;;;5005041;28;20034;-72
2022/10/26 05:48:32;;;;;;;5.72;3.00;;;13.70;99.90;;;;;;5002979;28;20038;-74
2022/10/26 05:51:00;;;;;;;3.65;2.60;;;13.70;99.90;;;;;;5006924;28;20022;-72
2022/10/26 05:53:27;;;;;;;10.90;3.00;;;13.80;99.90;;;;;;5009506;28;20084;-73
2022/10/26 05:55:54;;;;;;;14.38;3.55;;;13.80;99.90;;;;;;5005269;28;20023;-73
2022/10/26 05:58:20;;;;;;;4.45;2.97;;;13.80;99.90;;;;;;5005407;28;20109;-72
2022/10/26 06:01:23;;;;;;;14.88;3.03;;;13.80;99.90;;;;;;5012833;28;20037;-73
2022/10/26 06:04:13;;;;;;;9.88;2.88;;;13.80;99.90;;;;;;5004710;28;20320;-72
2022/10/26 06:06:43;;;;;;;8.35;3.33;;;13.90;99.90;;;;;;5005240;28;20018;-74
2022/10/26 06:09:11;;;;;;;4.63;2.95;;;13.90;99.90;;;;;;5000828;28;20412;-73
2022/10/26 06:11:39;;;;;;;8.77;2.80;;;13.90;99.90;;;;;;5023286;28;20129;-73
2022/10/26 06:14:06;;;;;;;8.88;2.67;;;13.90;99.90;;;;;;5006059;28;20069;-72
2022/10/26 06:17:02;;;;;;;9.73;3.00;;;14.00;99.90;;;;;;5004312;28;20022;-74
2022/10/26 06:19:55;;;;;;;7.05;2.90;;;14.10;99.90;;;;;;5003316;28;20018;-75
2022/10/26 06:22:37;;;;;;;6.90;2.70;;;14.10;99.90;;;;;;5003910;28;20030;-72
2022/10/26 06:25:12;;;;;;;6.57;2.50;;;14.20;99.90;;;;;;5002146;28;20022;-72
2022/10/26 06:27:46;;;;;;;8.35;2.47;;;14.20;99.90;;;;;;5002708;28;20123;-74
2022/10/26 06:30:12;;;;;;;7.25;2.90;;;14.20;99.90;;;;;;5003182;28;20033;-74
2022/10/26 06:32:42;;;;;;;6.47;3.17;;;14.30;99.90;;;;;;5004303;28;20022;-72
2022/10/26 06:35:16;;;;;;;5.68;2.50;;;14.30;99.90;;;;;;5004175;28;20546;-72
2022/10/26 06:37:44;;;;;;;5.70;2.67;;;14.40;99.90;;;;;;5005179;28;20391;-72
2022/10/26 06:40:17;;;;;;;8.80;2.50;;;14.40;99.90;;;;;;5007304;28;20030;-72
2022/10/26 06:42:43;;;;;;;;;;;14.40;99.90;;;;;;5007330;28;20021;-75
2022/10/26 06:45:18;;;;;;;9.32;2.83;;;14.40;99.90;;;;;;5001298;28;19935;-71
2022/10/26 06:47:56;;;;;;;14.98;3.00;;;14.50;99.90;;;;;;5008163;28;20026;-72
2022/10/26 06:50:28;;;;;;;8.63;2.92;;;14.50;99.90;;;;;;5004872;28;20029;-71
2022/10/26 06:53:24;;;;;;;3.08;2.35;;;14.60;99.90;;;;;;5005088;28;20634;-72
2022/10/26 06:55:51;;;;;;;5.13;2.38;;;14.60;99.90;;;;;;4977483;28;20140;-73
2022/10/26 06:58:19;;;;;;;8.77;2.80;;;14.70;99.90;;;;;;5008665;28;20403;-73
2022/10/26 07:00:47;;;;;;;5.18;2.35;;;14.70;99.90;;;;;;5000182;28;20301;-72
2022/10/26 07:03:16;;;;;;;9.98;2.40;;;14.80;99.90;;;;;;5005015;28;20018;-72
2022/10/26 07:05:42;;;;;;;4.35;2.60;;;14.80;99.90;;;;;;5008254;28;20030;-73
2022/10/26 07:08:11;;;;;;;3.65;2.35;;;14.90;99.90;;;;;;5003547;28;20088;-72
2022/10/26 07:10:39;;;;;;;8.48;2.53;;;15.00;99.90;;;;;;5002937;28;20034;-72
2022/10/26 07:13:05;;;;;;;5.80;2.53;;;15.10;99.90;;;;;;5002806;28;20026;-74
2022/10/26 07:15:32;;;;;;;7.93;2.10;;;15.20;99.90;;;;;;4998556;28;20105;-73
2022/10/26 07:17:57;;;;;;;7.68;2.30;;;15.30;99.90;;;;;;5003288;28;20114;-73
2022/10/26 07:20:23;;;;;;;6.75;2.28;;;15.30;99.90;;;;;;4997666;28;20095;-74
2022/10/26 07:22:53;;;;;;;7.43;2.25;;;15.40;99.90;;;;;;5006398;28;20030;-74
2022/10/26 07:25:19;;;;;;;9.68;2.67;;;15.50;99.90;;;;;;5000403;28;20065;-74
2022/10/26 07:27:47;;;;;;;3.88;2.45;;;15.60;99.90;;;;;;5009671;28;20319;-73
2022/10/26 07:30:13;;;;;;;6.40;1.88;;;15.70;99.90;;;;;;5002284;28;20030;-74
2022/10/26 07:32:41;;;;;;;7.97;2.35;;;15.80;99.90;;;;;;5010345;28;20105;-73
2022/10/26 07:35:09;;;;;;;4.63;2.08;;;15.80;99.90;;;;;;5004760;28;20093;-73
2022/10/26 07:37:35;;;;;;;6.28;1.95;;;15.90;99.90;;;;;;5002345;28;20018;-73
2022/10/26 07:40:01;;;;;;;7.53;1.98;;;15.90;99.90;;;;;;5003938;28;20526;-75
2022/10/26 07:42:26;;;;;;;10.68;2.20;;;15.90;99.90;;;;;;5003545;28;20030;-74
2022/10/26 07:44:54;;;;;;;5.90;2.00;;;16.00;99.90;;;;;;5006558;28;20108;-72
2022/10/26 07:47:20;;;;;;;8.27;2.35;;;15.90;99.90;;;;;;5001370;28;20061;-73
2022/10/26 07:49:50;;;;;;;2.92;1.92;;;15.90;99.90;;;;;;5003275;28;20049;-72
2022/10/26 07:52:18;;;;;;;6.22;2.40;;;15.90;99.90;;;;;;5002766;28;20057;-73
2022/10/26 07:54:46;;;;;;;4.38;2.10;;;16.00;99.90;;;;;;5002048;28;20027;-70
2022/10/26 07:57:11;;;;;;;3.28;1.92;;;16.00;99.90;;;;;;5002843;28;20033;-70
2022/10/26 07:59:37;;;;;;;8.45;2.20;;;16.10;99.90;;;;;;5005978;28;20029;-74
2022/10/26 08:02:02;;;;;;;5.63;1.75;;;16.10;99.90;;;;;;5008206;28;20029;-72
2022/10/26 08:04:28;;;;;;;6.75;2.10;;;16.20;99.90;;;;;;5002547;28;20406;-74
2022/10/26 08:06:54;;;;;;;3.63;1.60;;;16.30;99.90;;;;;;5001072;28;20521;-73
2022/10/26 08:09:24;;;;;;;10.45;2.45;;;16.40;99.90;;;;;;4999748;28;20034;-74
2022/10/26 08:11:49;;;;;;;3.33;1.52;;;16.50;99.90;;;;;;5004337;28;20537;-75
2022/10/26 08:14:15;;;;;;;7.25;2.30;;;16.60;99.90;;;;;;5016766;28;20037;-72
2022/10/26 08:16:41;;;;;;;8.40;2.08;;;16.70;99.90;;;;;;5007508;28;20147;-73
2022/10/26 08:19:06;;;;;;;6.13;2.15;;;16.90;99.90;;;;;;5004190;28;20080;-72
2022/10/26 08:21:32;;;;;;;6.35;1.90;;;17.00;99.90;;;;;;4999668;28;20027;-73
2022/10/26 08:23:58;;;;;;;1.90;1.75;;;17.10;99.90;;;;;;4998161;28;20037;-71
2022/10/26 08:26:23;;;;;;;17.63;2.58;;;17.20;99.90;;;;;;5001518;28;20030;-75
2022/10/26 08:28:49;;;;;;;3.65;1.70;;;17.30;99.90;;;;;;4995804;28;20101;-73
2022/10/26 08:31:17;;;;;;;3.17;1.90;;;17.30;99.90;;;;;;5004251;28;20400;-72
2022/10/26 08:33:43;;;;;;;5.07;2.00;;;17.40;99.90;;;;;;4997723;28;20037;-74
2022/10/26 08:36:11;;;;;;;9.68;1.98;;;17.60;99.90;;;;;;5000710;28;20055;-73
2022/10/26 08:38:38;;;;;;;5.05;2.13;;;17.70;99.90;;;;;;5006760;28;20422;-73
2022/10/26 08:41:12;;;;;;;9.82;3.53;;;17.80;99.90;;;;;;4999344;28;20013;-71
2022/10/26 08:43:53;;;;;;;6.30;2.22;;;17.90;99.90;;;;;;5003534;28;20460;-74
2022/10/26 08:46:35;;;;;;;6.55;2.58;;;18.00;99.90;;;;;;4993445;28;20056;-76
2022/10/26 08:49:29;;;;;;;4.07;2.20;;;18.00;99.90;;;;;;4999291;28;20110;-73
2022/10/26 08:52:00;;;;;;;6.03;2.25;;;18.10;99.90;;;;;;4994818;28;20042;-75
2022/10/26 08:54:38;;;;;;;7.85;2.13;;;18.20;99.90;;;;;;4998088;28;20566;-74
2022/10/26 08:57:29;;;;;;;17.55;3.65;;;18.30;99.90;;;;;;5001126;28;20160;-74
2022/10/26 09:00:19;;;;;;;6.32;2.78;;;18.30;99.90;;;;;;5002634;28;20034;-74
2022/10/26 09:03:12;;;;;;;9.18;2.30;;;18.40;99.90;;;;;;4991608;28;20026;-74
2022/10/26 09:06:03;;;;;;;6.22;2.13;;;18.70;99.90;;;;;;4996316;28;20105;-76
2022/10/26 09:08:51;;;;;;;7.97;2.60;;;18.80;99.90;;;;;;5001029;28;20064;-75
2022/10/26 09:11:27;;;;;;;5.88;2.30;;;19.10;99.90;;;;;;4998283;28;20550;-74
2022/10/26 09:14:06;;;;;;;5.65;2.08;;;19.40;99.90;;;;;;4998044;28;20044;-74
2022/10/26 09:17:05;;;;;;;5.60;2.60;;;19.40;99.90;;;;;;4995177;28;20049;-73
2022/10/26 09:20:12;;;;;;;9.23;2.67;;;19.50;99.90;;;;;;5003879;28;20036;-74
2022/10/26 09:23:00;;;;;;;6.80;2.67;;;19.30;99.90;;;;;;5009566;28;20120;-74
2022/10/26 09:25:36;;;;;;;9.38;2.35;;;19.30;99.90;;;;;;5008724;28;20021;-76
2022/10/26 09:28:03;;;;;;;2.05;1.85;;;19.20;99.90;;;;;;5009329;28;20506;-74
2022/10/26 09:30:29;;;;;;;7.78;2.20;;;19.20;99.90;;;;;;5012157;28;20037;-75
2022/10/26 09:32:58;;;;;;;10.52;2.00;;;19.20;99.90;;;;;;5008032;28;20052;-76
2022/10/26 09:35:51;;;;;;;5.97;2.20;;;19.30;99.90;;;;;;5024457;28;20017;-74
2022/10/26 09:38:27;;;;;;;7.70;2.53;;;19.60;99.90;;;;;;5003928;28;20041;-74
2022/10/26 09:41:14;;;;;;;7.57;2.00;;;19.90;99.90;;;;;;5006771;28;20164;-75
2022/10/26 09:43:56;;;;;;;7.47;2.10;;;20.10;99.90;;;;;;5003861;28;20108;-75
2022/10/26 09:46:41;;;;;;;6.37;1.57;;;19.90;99.90;;;;;;5002069;28;20104;-74
2022/10/26 09:49:12;;;;;;;4.70;1.80;;;19.70;99.90;;;;;;5001610;28;20019;-75
2022/10/26 09:51:41;;;;;;;4.57;1.83;;;20.00;99.90;;;;;;4998399;28;20621;-74
2022/10/26 09:54:15;;;;;;;2.67;1.48;;;20.10;99.90;;;;;;4997012;28;20061;-74
2022/10/26 09:56:45;;;;;;;9.95;1.80;;;20.30;99.90;;;;;;5001181;28;20448;-76
2022/10/26 09:59:14;;;;;;;3.40;1.90;;;21.10;99.90;;;;;;5003571;28;20105;-77
2022/10/26 10:01:40;;;;;;;4.47;2.33;;;21.90;99.90;;;;;;5006938;28;20021;-75
2022/10/26 10:04:12;;;;;;;2.80;2.20;;;22.30;99.90;;;;;;5000687;28;20030;-77
2022/10/26 10:06:40;;;;;;;6.13;1.90;;;22.30;99.90;;;;;;5001815;28;20030;-74
2022/10/26 10:09:12;;;;;;;9.65;2.10;;;22.30;99.90;;;;;;5004685;28;20109;-74
2022/10/26 10:11:41;;;;;;;4.18;2.00;;;22.60;99.90;;;;;;5003296;28;20030;-73
2022/10/26 10:14:12;;;;;;;4.05;1.80;;;22.30;99.90;;;;;;5002250;28;20025;-74
2022/10/26 10:16:38;;;;;;;7.38;2.00;;;22.50;99.90;;;;;;5005342;28;20038;-73
2022/10/26 10:19:22;;;;;;;5.85;2.28;;;22.70;99.90;;;;;;5008018;28;20077;-74
2022/10/26 10:21:49;;;;;;;8.55;2.38;;;22.90;99.60;;;;;;5001507;28;20126;-75
2022/10/26 10:24:22;;;;;;;9.52;2.17;;;22.80;99.20;;;;;;5004901;28;20032;-76
2022/10/26 10:27:03;;;;;;;5.43;2.33;;;22.90;99.20;;;;;;5002190;28;20457;-73
2022/10/26 10:29:39;;;;;;;3.75;1.95;;;23.30;98.50;;;;;;5004024;28;20669;-75
2022/10/26 10:32:05;;;;;;;4.75;1.92;;;23.30;97.50;;;;;;4999378;28;20089;-75
2022/10/26 10:34:32;;;;;;;5.30;2.42;;;23.70;97.10;;;;;;5007966;28;20050;-74
2022/10/26 10:37:00;;;;;;;8.02;2.80;;;23.80;96.60;;;;;;5002932;28;20088;-74
2022/10/26 10:39:46;;;;;;;7.10;2.50;;;23.90;95.60;;;;;;5005689;28;20022;-75
2022/10/26 10:42:22;;;;;;;4.47;2.03;;;23.80;95.60;;;;;;5006193;28;20117;-73
2022/10/26 10:44:52;;;;;;;6.07;2.22;;;24.20;95.70;;;;;;5006951;28;20415;-77
2022/10/26 10:47:24;;;;;;;2.75;1.83;;;23.80;95.20;;;;;;5002519;28;20063;-73
2022/10/26 10:50:02;;;;;;;4.30;2.45;;;24.00;95.50;;;;;;5001566;28;20049;-73
2022/10/26 10:52:30;;;;;;;7.95;2.97;;;24.30;95.20;;;;;;5004337;28;20092;-74
2022/10/26 10:55:09;;;;;;;5.05;2.60;;;23.70;95.20;;;;;;5004140;28;20114;-75
2022/10/26 10:57:58;;;;;;;6.18;2.58;;;23.60;95.90;;;;;;5004078;28;20022;-77
2022/10/26 11:00:26;;;;;;;7.20;2.83;;;23.40;96.10;;;;;;5000466;28;20034;-73
2022/10/26 11:03:16;;;;;;;5.03;2.95;;;23.30;97.00;;;;;;5016693;28;20029;-74
2022/10/26 11:06:00;;;;;;;7.20;2.45;;;23.20;96.80;;;;;;5005073;28;20022;-76
2022/10/26 11:08:52;;;;;;;11.10;3.60;;;23.00;97.30;;;;;;5003942;28;20049;-78
2022/10/26 11:11:31;;;;;;;7.10;2.65;;;22.50;97.60;;;;;;5017519;28;20513;-73
2022/10/26 11:14:02;;;;;;;46.65;19.08;;;22.70;98.30;;;;;;5000814;28;20034;-74
2022/10/26 11:16:39;;;;;;;13.68;4.97;;;22.70;98.20;;;;;;5001819;28;20080;-74
2022/10/26 11:19:15;;;;;;;4.95;2.90;;;22.70;98.40;;;;;;5019108;28;20026;-77
2022/10/26 11:21:45;;;;;;;6.43;2.78;;;22.80;98.40;;;;;;5005048;28;20041;-74
2022/10/26 11:24:17;;;;;;;11.48;3.15;;;22.80;98.30;;;;;;5003768;28;20405;-74
2022/10/26 11:26:46;;;;;;;6.63;2.78;;;23.00;98.30;;;;;;5002826;28;20025;-75
2022/10/26 11:29:21;;;;;;;8.30;2.30;;;23.10;97.70;;;;;;5001991;28;20034;-75
2022/10/26 11:31:55;;;;;;;4.30;2.67;;;23.10;97.50;;;;;;5004177;28;20106;-76
2022/10/26 11:34:35;;;;;;;75.60;32.22;;;23.40;97.70;;;;;;5018889;28;20121;-74
2022/10/26 11:37:36;;;;;;;12.93;3.33;;;23.60;97.80;;;;;;4998944;28;20030;-74
2022/10/26 11:40:21;;;;;;;6.55;2.92;;;23.80;96.70;;;;;;5010501;28;20026;-74
2022/10/26 11:43:01;;;;;;;11.63;3.35;;;23.60;96.60;;;;;;5005651;28;20037;-74
2022/10/26 11:45:48;;;;;;;10.32;3.13;;;23.60;96.60;;;;;;5003646;28;20052;-73
2022/10/26 11:48:23;;;;;;;9.05;3.17;;;23.50;96.70;;;;;;5002992;28;20030;-74
2022/10/26 11:50:53;;;;;;;11.65;3.08;;;23.60;96.80;;;;;;5001628;28;20083;-75
2022/10/26 11:53:23;;;;;;;6.93;2.30;;;23.70;96.80;;;;;;5000529;28;20022;-73
2022/10/26 11:55:54;;;;;;;4.95;2.90;;;23.60;96.40;;;;;;5006960;28;20034;-75
2022/10/26 11:58:24;;;;;;;17.77;5.55;;;23.90;96.10;;;;;;5000039;28;20038;-71
2022/10/26 12:01:08;;;;;;;4.68;2.65;;;24.00;96.10;;;;;;4999566;28;20348;-72
2022/10/26 12:03:42;;;;;;;7.18;2.92;;;24.10;95.80;;;;;;4999400;28;20041;-79
2022/10/26 12:06:11;;;;;;;6.68;3.13;;;23.80;95.50;;;;;;4999855;28;20045;-73
2022/10/26 12:08:40;;;;;;;6.70;3.00;;;23.90;96.10;;;;;;5007457;28;20026;-73
2022/10/26 12:11:20;;;;;;;5.00;2.90;;;23.90;96.00;;;;;;5000096;28;20038;-75
2022/10/26 12:13:55;;;;;;;12.95;3.25;;;24.30;95.40;;;;;;5002075;28;20033;-74
2022/10/26 12:16:42;;;;;;;6.82;3.25;;;24.10;95.90;;;;;;5004105;28;20033;-71
2022/10/26 12:19:23;;;;;;;7.70;2.78;;;24.20;95.80;;;;;;5002984;28;20026;-80
2022/10/26 12:21:50;;;;;;;6.72;2.80;;;23.90;95.00;;;;;;5006455;28;20053;-73
2022/10/26 12:24:24;;;;;;;8.90;3.30;;;24.20;95.50;;;;;;5009089;28;20025;-74
2022/10/26 12:26:51;;;;;;;9.25;2.83;;;24.30;94.80;;;;;;5001704;28;20027;-76
2022/10/26 12:29:37;;;;;;;4.10;2.35;;;24.50;94.70;;;;;;5010480;28;20041;-75
2022/10/26 12:32:27;;;;;;;5.63;2.45;;;24.60;94.70;;;;;;5002034;28;20073;-74
2022/10/26 12:34:53;;;;;;;7.18;2.53;;;25.20;93.90;;;;;;5011293;28;20029;-75
2022/10/26 12:37:37;;;;;;;7.22;2.40;;;25.00;93.50;;;;;;5020242;28;20046;-74
2022/10/26 12:40:29;;;;;;;5.38;2.67;;;25.20;93.50;;;;;;5004492;28;20034;-76
2022/10/26 12:42:55;;;;;;;5.88;2.70;;;25.10;93.40;;;;;;4998509;28;20050;-73
2022/10/26 12:45:21;;;;;;;5.93;2.28;;;25.00;93.40;;;;;;5011170;28;20768;-75
2022/10/26 12:47:47;;;;;;;5.22;2.33;;;25.00;93.80;;;;;;5006285;28;20026;-74
2022/10/26 12:50:12;;;;;;;8.73;2.30;;;25.10;93.60;;;;;;5006432;28;20693;-76
2022/10/26 12:52:43;;;;;;;5.10;2.25;;;24.80;93.60;;;;;;5000006;28;20079;-74
2022/10/26 12:55:24;;;;;;;8.98;2.00;;;25.30;93.50;;;;;;5018048;28;20022;-73
2022/10/26 12:57:52;;;;;;;5.40;1.67;;;25.80;92.20;;;;;;5000357;28;20125;-75
2022/10/26 13:00:23;;;;;;;5.13;2.13;;;26.20;92.50;;;;;;5001203;28;20036;-74
2022/10/26 13:03:07;;;;;;;4.97;2.03;;;28.20;90.00;;;;;;5002781;28;20044;-75
2022/10/26 13:05:44;;;;;;;6.90;2.00;;;31.40;78.90;;;;;;5001470;28;20379;-77
2022/10/26 13:08:12;;;;;;;3.25;2.03;;;33.60;68.00;;;;;;5014477;28;20018;-72
2022/10/26 13:10:44;;;;;;;3.45;2.15;;;33.20;64.40;;;;;;5001333;28;20025;-73